Monday, October 21, 2019, 10:05 PM EDT
Back to Local

KBDR, Sikorsky Memorial Airport

Location: Stratford, CT, United States Lat: 41.167
Local Time: 10:05 PM EDT ( 2:05 GMT) Lon: -73.133
Time Zone: US/Eastern Elev: 9 ft

Show me the last for .
Show Decoded

2019-10-21 21:52 METAR KBDR 220152Z 36004KT 10SM CLR 12/10 A3013 RMK AO2 SLP202 T01220100 =
2019-10-21 20:52 METAR KBDR 220052Z 03003KT 10SM CLR 13/10 A3012 RMK AO2 SLP199 T01330100 =
2019-10-21 19:52 METAR KBDR 212352Z 00000KT 10SM CLR 13/09 A3010 RMK AO2 SLP194 T01280094 10194
                 20128 51010 =
2019-10-21 18:52 METAR KBDR 212252Z 00000KT 10SM CLR 14/10 A3010 RMK AO2 SLP192 T01440100 =
2019-10-21 17:52 METAR KBDR 212152Z 00000KT 10SM CLR 16/10 A3009 RMK AO2 SLP189 T01560100 =
2019-10-21 16:52 METAR KBDR 212052Z 16007KT 10SM CLR 18/11 A3007 RMK AO2 SLP184 T01780106 53009 =
2019-10-21 15:52 METAR KBDR 211952Z 10004KT 10SM CLR 19/08 A3006 RMK AO2 SLP179 T01940078 =
2019-10-21 13:52 METAR KBDR 211752Z 09010KT 10SM CLR 19/08 A3005 RMK AO2 SLP175 T01890083 10200
                 20111 58005 =
2019-10-21 12:52 METAR KBDR 211652Z 01010KT 10SM CLR 19/06 A3007 RMK AO2 SLP181 T01940056 =
2019-10-21 11:52 METAR KBDR 211552Z 36012KT 10SM CLR 18/06 A3007 RMK AO2 SLP183 T01780061 =
2019-10-21 10:52 METAR KBDR 211452Z 04012KT 10SM CLR 16/07 A3006 RMK AO2 SLP180 T01610072 51006 =
2019-10-21 09:52 METAR KBDR 211352Z 03013G18KT 10SM CLR 14/07 A3006 RMK AO2 SLP178 T01440072 =
2019-10-21 08:52 METAR KBDR 211252Z 02009KT 10SM CLR 12/08 A3007 RMK AO2 SLP181 T01220078 =
2019-10-21 07:52 METAR KBDR 211152Z 02011G19KT 10SM CLR 11/08 A3005 RMK AO2 SLP174 70024
                 T01110078 10117 20106 53018 =
2019-10-21 06:52 METAR KBDR 211052Z 36011KT 10SM CLR 11/08 A3003 RMK AO2 SLP167 T01060078 =
2019-10-21 05:52 METAR KBDR 210952Z AUTO 01011KT 10SM CLR 11/08 A3001 RMK AO2 SLP161 T01060083 =
2019-10-21 04:52 METAR KBDR 210852Z AUTO 36012KT 10SM BKN041 12/08 A2999 RMK AO2 SLP156 T01170083
                 55000 =
2019-10-21 03:52 METAR KBDR 210752Z AUTO 36009KT 10SM OVC036 12/09 A2999 RMK AO2 SLP154 T01170089
                 =
2019-10-21 02:52 METAR KBDR 210652Z AUTO 03010KT 10SM OVC036 12/09 A2998 RMK AO2 SLP151 T01170089
                 =
2019-10-21 01:52 METAR KBDR 210552Z AUTO 03011KT 10SM OVC036 12/09 A2999 RMK AO2 RAE32 SLP156
                 P0000 60010 T01170094 10122 20111 56006 =
2019-10-21 01:23 METAR KBDR 210523Z AUTO 03009KT 10SM -RA SCT028 OVC035 12/09 A2999 RMK AO2 P0000
                 T01170094 =
2019-10-21 01:15 METAR KBDR 210515Z AUTO 02008KT 10SM -RA BKN028 OVC037 12/09 A2999 RMK AO2 P0000
                 T01170094 =
2019-10-21 00:52 METAR KBDR 210452Z AUTO 02010KT 10SM -RA SCT037 BKN100 BKN120 11/09 A2999 RMK
                 AO2 SLP156 P0003 T01110094 401560061 =
2019-10-20 23:52 METAR KBDR 210352Z AUTO 03009KT 10SM -RA FEW028 BKN037 BKN090 12/09 A3001 RMK
                 AO2 SLP161 P0005 T01170094 =
2019-10-20 23:42 METAR KBDR 210342Z AUTO 04010KT 10SM -RA SCT028 OVC037 12/09 A3001 RMK AO2 P0005
                 T01170094 =
2019-10-20 23:27 METAR KBDR 210327Z AUTO 03010KT 9SM -RA BKN028 OVC038 12/09 A3001 RMK AO2 P0005
                 T01170094 =
2019-10-20 22:52 METAR KBDR 210252Z AUTO 03011KT 9SM -RA FEW018 BKN030 OVC035 12/10 A3001 RMK AO2
                 RAE0156B15 SLP162 P0000 60002 T01170100 58001 =

Support USWX by starting your Amazon purchase here.